Time;durP1;ratioP1;P1;durP2;ratioP2;P2;SDS_P1;SDS_P2;PMS_P1;PMS_P2;Temp;Humidity;BMP_temperature;BMP_pressure;BME280_temperature;BME280_humidity;BME280_pressure;Samples;Min_cycle;Max_cycle;Signal;HPM_P1;HPM_P2
2023/09/05 00:01:12;;;;;;;7.05;2.67;;;;;;;;;;4955207;29;20046;-80
2023/09/05 00:03:38;;;;;;;3.92;2.17;;;;;;;;;;4956228;29;20106;-81
2023/09/05 00:06:05;;;;;;;4.20;2.30;;;;;;;;;;4942406;29;20036;-82
2023/09/05 00:08:31;;;;;;;6.35;2.22;;;;;;;;;;4941375;29;20036;-81
2023/09/05 00:11:01;;;;;;;5.18;2.70;;;;;;;;;;4925192;29;20057;-81
2023/09/05 00:13:27;;;;;;;4.97;2.60;;;;;;;;;;4941864;29;20032;-81
2023/09/05 00:15:52;;;;;;;5.07;2.10;;;;;;;;;;4941950;29;20043;-81
2023/09/05 00:18:18;;;;;;;5.32;2.30;;;;;;;;;;4922394;29;20086;-80
2023/09/05 00:20:46;;;;;;;4.43;2.50;;;;;;;;;;4921251;29;20040;-81
2023/09/05 00:23:11;;;;;;;4.80;2.35;;;;;;;;;;4937513;29;20028;-80
2023/09/05 00:25:36;;;;;;;5.32;3.15;;;;;;;;;;4906992;29;20685;-81
2023/09/05 00:28:03;;;;;;;4.72;2.50;;;;;;;;;;4922032;29;20523;-82
2023/09/05 00:30:29;;;;;;;4.43;2.35;;;;;;;;;;4925213;29;20025;-82
2023/09/05 00:32:54;;;;;;;4.90;2.30;;;;;;;;;;4939402;29;20032;-82
2023/09/05 00:35:20;;;;;;;5.05;2.60;;;;;;;;;;4921086;29;20058;-81
2023/09/05 00:37:47;;;;;;;3.92;2.38;;;;;;;;;;4941384;29;20540;-82
2023/09/05 00:40:12;;;;;;;6.70;2.55;;;;;;;;;;4925382;29;20064;-81
2023/09/05 00:42:39;;;;;;;3.72;2.20;;;;;;;;;;4924732;29;20031;-82
2023/09/05 00:45:05;;;;;;;5.25;2.30;;;;;;;;;;4923892;29;20036;-82
2023/09/05 00:47:32;;;;;;;4.30;2.05;;;;;;;;;;4943687;29;20080;-82
2023/09/05 00:49:58;;;;;;;6.07;2.47;;;;;;;;;;4958351;29;20450;-80
2023/09/05 00:52:25;;;;;;;9.73;2.50;;;;;;;;;;4946200;29;20109;-81
2023/09/05 00:54:51;;;;;;;5.07;2.30;;;;;;;;;;4959388;28;20020;-81
2023/09/05 00:57:21;;;;;;;4.85;2.42;;;;;;;;;;4944915;29;20083;-81
2023/09/05 00:59:47;;;;;;;3.67;2.15;;;;;;;;;;4960488;28;20024;-81
2023/09/05 01:02:12;;;;;;;9.00;2.60;;;;;;;;;;4956899;28;20036;-81
2023/09/05 01:04:41;;;;;;;6.05;2.42;;;;;;;;;;4940916;29;20040;-80
2023/09/05 01:07:12;;;;;;;5.20;2.37;;;;;;;;;;4939078;29;20056;-81
2023/09/05 01:09:49;;;;;;;5.55;2.58;;;;;;;;;;4925845;29;20100;-80
2023/09/05 01:12:14;;;;;;;6.47;2.30;;;;;;;;;;4937744;29;20032;-82
2023/09/05 01:14:40;;;;;;;7.40;3.08;;;;;;;;;;4923336;29;20035;-80
2023/09/05 01:17:05;;;;;;;4.25;2.47;;;;;;;;;;4922854;29;20160;-82
2023/09/05 01:19:34;;;;;;;4.65;2.47;;;;;;;;;;4928635;29;20028;-81
2023/09/05 01:22:13;;;;;;;4.32;2.80;;;;;;;;;;4957012;28;20415;-81
2023/09/05 01:24:40;;;;;;;5.47;2.60;;;;;;;;;;4924405;29;20040;-81
2023/09/05 01:27:07;;;;;;;5.28;2.70;;;;;;;;;;4923457;29;20031;-81
2023/09/05 01:29:39;;;;;;;5.68;2.60;;;;;;;;;;4940131;29;20035;-81
2023/09/05 01:32:09;;;;;;;4.40;2.28;;;;;;;;;;4940446;29;20447;-82
2023/09/05 01:34:34;;;;;;;4.65;2.67;;;;;;;;;;4941535;29;20123;-82
2023/09/05 01:37:00;;;;;;;5.10;2.33;;;;;;;;;;4946262;29;20035;-82
2023/09/05 01:39:25;;;;;;;5.97;2.80;;;;;;;;;;4929593;29;20514;-83
2023/09/05 01:41:51;;;;;;;4.75;2.80;;;;;;;;;;4946423;29;20040;-82
2023/09/05 01:44:17;;;;;;;6.03;2.53;;;;;;;;;;4946551;29;20043;-81
2023/09/05 01:46:45;;;;;;;6.32;2.83;;;;;;;;;;4942746;29;20027;-82
2023/09/05 01:49:13;;;;;;;6.72;2.60;;;;;;;;;;4942061;29;20031;-81
2023/09/05 01:51:38;;;;;;;6.82;2.50;;;;;;;;;;4943842;29;20040;-82
2023/09/05 01:54:04;;;;;;;4.13;2.75;;;;;;;;;;4945033;29;20035;-83
2023/09/05 01:56:29;;;;;;;8.18;2.90;;;;;;;;;;4960779;29;20476;-80
2023/09/05 01:58:55;;;;;;;5.43;2.42;;;;;;;;;;4961018;29;20032;-82
2023/09/05 02:01:21;;;;;;;5.47;2.78;;;;;;;;;;4953111;29;20095;-80
2023/09/05 02:03:47;;;;;;;6.88;2.78;;;;;;;;;;4941453;29;20032;-81
2023/09/05 02:06:13;;;;;;;7.07;3.15;;;;;;;;;;4926835;29;20031;-81
2023/09/05 02:08:39;;;;;;;5.60;3.15;;;;;;;;;;4940299;29;20095;-81
2023/09/05 02:11:05;;;;;;;6.15;3.10;;;;;;;;;;4957018;29;20496;-81
2023/09/05 02:13:30;;;;;;;7.15;2.90;;;;;;;;;;4924328;29;20028;-81
2023/09/05 02:15:56;;;;;;;6.28;2.72;;;;;;;;;;4943126;29;20107;-82
2023/09/05 02:18:23;;;;;;;7.05;2.92;;;;;;;;;;4940149;29;20032;-80
2023/09/05 02:20:51;;;;;;;5.40;2.70;;;;;;;;;;4942345;29;20507;-81
2023/09/05 02:23:17;;;;;;;5.47;2.97;;;;;;;;;;4958502;29;20063;-80
2023/09/05 02:25:43;;;;;;;5.95;2.83;;;;;;;;;;4942780;29;20564;-81
2023/09/05 02:28:10;;;;;;;4.63;2.83;;;;;;;;;;4943264;29;20027;-80
2023/09/05 02:30:40;;;;;;;6.43;2.72;;;;;;;;;;4958053;29;20082;-79
2023/09/05 02:33:08;;;;;;;6.00;3.10;;;;;;;;;;4942506;29;20086;-81
2023/09/05 02:35:34;;;;;;;6.20;3.17;;;;;;;;;;4942508;29;20035;-81
2023/09/05 02:37:59;;;;;;;5.57;2.60;;;;;;;;;;4942614;29;20027;-80
2023/09/05 02:40:26;;;;;;;7.20;3.78;;;;;;;;;;4943439;29;20062;-81
2023/09/05 02:42:52;;;;;;;7.00;4.25;;;;;;;;;;4943380;29;20476;-81
2023/09/05 02:45:17;;;;;;;16.67;7.00;;;;;;;;;;4959355;29;20043;-81
2023/09/05 02:47:43;;;;;;;7.15;3.13;;;;;;;;;;4926025;29;20492;-80
2023/09/05 02:50:10;;;;;;;5.50;2.90;;;;;;;;;;4957487;28;20024;-83
2023/09/05 02:52:36;;;;;;;5.70;2.80;;;;;;;;;;4942351;29;20106;-81
2023/09/05 02:55:03;;;;;;;19.20;11.63;;;;;;;;;;4953729;29;20599;-81
2023/09/05 02:57:28;;;;;;;21.55;12.55;;;;;;;;;;4942533;29;20052;-81
2023/09/05 02:59:54;;;;;;;26.13;15.93;;;;;;;;;;4927903;29;20027;-82
2023/09/05 03:02:21;;;;;;;7.18;4.38;;;;;;;;;;4945126;29;20143;-81
2023/09/05 03:04:51;;;;;;;8.63;3.13;;;;;;;;;;4944040;29;20397;-81
2023/09/05 03:07:17;;;;;;;11.80;4.55;;;;;;;;;;4911342;29;20028;-81
2023/09/05 03:09:43;;;;;;;7.53;3.30;;;;;;;;;;4959788;29;20028;-81
2023/09/05 03:12:08;;;;;;;5.28;2.83;;;;;;;;;;4939035;29;20036;-81
2023/09/05 03:14:34;;;;;;;7.60;2.70;;;;;;;;;;4939723;29;20124;-81
2023/09/05 03:17:00;;;;;;;7.30;2.97;;;;;;;;;;4923188;29;20036;-81
2023/09/05 03:19:26;;;;;;;6.22;2.90;;;;;;;;;;4939213;29;20429;-82
2023/09/05 03:21:51;;;;;;;5.13;3.00;;;;;;;;;;4924611;29;20091;-82
2023/09/05 03:24:18;;;;;;;5.35;3.13;;;;;;;;;;4939404;29;20217;-80
2023/09/05 03:26:47;;;;;;;9.25;4.30;;;;;;;;;;4940743;29;20502;-81
2023/09/05 03:29:14;;;;;;;13.50;9.15;;;;;;;;;;4947515;29;20030;-81
2023/09/05 03:31:40;;;;;;;7.03;3.13;;;;;;;;;;4943396;29;20106;-81
2023/09/05 03:34:08;;;;;;;5.65;3.00;;;;;;;;;;4962880;29;20039;-81
2023/09/05 03:36:34;;;;;;;5.28;2.90;;;;;;;;;;4959269;29;20040;-81
2023/09/05 03:39:00;;;;;;;6.90;3.10;;;;;;;;;;4961499;28;20044;-81
2023/09/05 03:41:25;;;;;;;5.20;3.13;;;;;;;;;;4961189;28;20059;-81
2023/09/05 03:43:51;;;;;;;6.15;2.90;;;;;;;;;;4960961;28;20062;-82
2023/09/05 03:46:16;;;;;;;7.32;2.90;;;;;;;;;;4960896;28;20060;-81
2023/09/05 03:48:42;;;;;;;4.85;3.17;;;;;;;;;;4959883;28;20043;-82
2023/09/05 03:51:08;;;;;;;6.50;2.83;;;;;;;;;;4915540;29;20451;-81
2023/09/05 03:53:33;;;;;;;5.65;3.00;;;;;;;;;;4943740;29;20570;-80
2023/09/05 03:55:59;;;;;;;8.27;3.35;;;;;;;;;;4943071;29;20122;-81
2023/09/05 03:58:25;;;;;;;9.02;3.08;;;;;;;;;;4928498;29;20042;-82
2023/09/05 04:00:55;;;;;;;6.72;3.45;;;;;;;;;;4944396;29;20028;-82
2023/09/05 04:03:22;;;;;;;5.80;3.10;;;;;;;;;;4944944;29;20099;-80
2023/09/05 04:05:47;;;;;;;7.30;3.20;;;;;;;;;;4942464;29;20032;-81
2023/09/05 04:08:13;;;;;;;6.78;3.38;;;;;;;;;;4946047;29;20027;-81
2023/09/05 04:10:39;;;;;;;5.68;3.10;;;;;;;;;;4926864;29;20035;-81
2023/09/05 04:13:05;;;;;;;7.78;3.20;;;;;;;;;;4959100;29;20518;-81
2023/09/05 04:15:32;;;;;;;8.65;3.45;;;;;;;;;;4943121;29;20024;-80
2023/09/05 04:17:57;;;;;;;5.72;3.33;;;;;;;;;;4939295;29;20409;-79
2023/09/05 04:20:22;;;;;;;8.23;3.40;;;;;;;;;;4940569;29;20028;-81
2023/09/05 04:22:48;;;;;;;6.20;3.42;;;;;;;;;;4909477;29;20032;-82
2023/09/05 04:25:14;;;;;;;8.57;3.70;;;;;;;;;;4923860;29;20401;-81
2023/09/05 04:27:40;;;;;;;6.20;3.38;;;;;;;;;;4925468;29;20032;-82
2023/09/05 04:30:06;;;;;;;10.45;4.53;;;;;;;;;;4941237;29;20039;-81
2023/09/05 04:32:32;;;;;;;5.03;3.30;;;;;;;;;;4924317;29;20442;-82
2023/09/05 04:34:59;;;;;;;7.32;3.33;;;;;;;;;;4927807;29;20046;-81
2023/09/05 04:37:29;;;;;;;6.45;3.47;;;;;;;;;;4921793;29;20036;-81
2023/09/05 04:40:03;;;;;;;7.22;3.95;;;;;;;;;;4953385;29;20043;-82
2023/09/05 04:42:29;;;;;;;5.53;3.33;;;;;;;;;;4934588;29;20028;-81
2023/09/05 04:44:56;;;;;;;8.73;3.38;;;;;;;;;;4934268;29;20048;-81
2023/09/05 04:47:26;;;;;;;10.10;2.97;;;;;;;;;;4927925;29;20074;-81
2023/09/05 04:50:00;;;;;;;8.55;3.33;;;;;;;;;;4956010;28;20028;-82
2023/09/05 04:52:31;;;;;;;8.77;4.07;;;;;;;;;;4951412;29;20035;-82
2023/09/05 04:54:59;;;;;;;8.45;3.40;;;;;;;;;;4929768;29;20500;-81
2023/09/05 04:57:25;;;;;;;7.25;3.85;;;;;;;;;;4943895;29;20507;-82
2023/09/05 04:59:57;;;;;;;9.25;4.40;;;;;;;;;;4944260;29;20063;-82
2023/09/05 05:02:23;;;;;;;11.65;4.75;;;;;;;;;;4946247;29;20040;-83
2023/09/05 05:04:49;;;;;;;9.57;3.30;;;;;;;;;;4955019;29;20128;-81
2023/09/05 05:07:15;;;;;;;8.63;4.05;;;;;;;;;;4925364;29;20088;-82
2023/09/05 05:09:41;;;;;;;11.05;4.13;;;;;;;;;;4940431;29;20103;-82
2023/09/05 05:12:10;;;;;;;6.88;3.80;;;;;;;;;;4927095;29;20096;-83
2023/09/05 05:14:36;;;;;;;9.27;4.30;;;;;;;;;;4927702;29;20080;-83
2023/09/05 05:17:02;;;;;;;12.75;4.70;;;;;;;;;;4944200;29;20040;-81
2023/09/05 05:19:28;;;;;;;10.20;4.97;;;;;;;;;;4926329;29;20040;-82
2023/09/05 05:21:53;;;;;;;8.35;3.88;;;;;;;;;;4929058;29;20544;-82
2023/09/05 05:24:19;;;;;;;6.93;4.20;;;;;;;;;;4948818;28;20156;-81
2023/09/05 05:26:45;;;;;;;6.78;3.75;;;;;;;;;;4959989;29;20032;-82
2023/09/05 05:29:16;;;;;;;8.25;3.38;;;;;;;;;;4942819;29;20035;-82
2023/09/05 05:31:42;;;;;;;12.90;4.10;;;;;;;;;;4941323;29;20028;-82
2023/09/05 05:34:09;;;;;;;7.25;3.58;;;;;;;;;;4942981;29;20042;-82
2023/09/05 05:36:35;;;;;;;6.63;3.70;;;;;;;;;;4942824;29;20071;-81
2023/09/05 05:39:02;;;;;;;9.23;4.90;;;;;;;;;;4926740;29;20035;-82
2023/09/05 05:41:28;;;;;;;11.65;6.30;;;;;;;;;;4941883;29;20060;-83
2023/09/05 05:43:54;;;;;;;8.05;4.00;;;;;;;;;;4941131;29;20453;-81
2023/09/05 05:46:21;;;;;;;13.93;3.50;;;;;;;;;;4926375;29;20028;-82
2023/09/05 05:48:46;;;;;;;11.48;6.68;;;;;;;;;;4910523;29;20096;-80
2023/09/05 05:51:15;;;;;;;10.65;4.43;;;;;;;;;;4933228;29;20023;-81
2023/09/05 05:53:42;;;;;;;9.70;3.72;;;;;;;;;;4930322;29;20111;-81
2023/09/05 05:56:11;;;;;;;5.28;3.30;;;;;;;;;;4925001;29;20048;-82
2023/09/05 05:58:36;;;;;;;8.18;3.42;;;;;;;;;;4925220;29;20032;-82
2023/09/05 06:01:03;;;;;;;11.30;3.90;;;;;;;;;;4895087;29;20084;-81
2023/09/05 06:03:29;;;;;;;6.63;3.42;;;;;;;;;;4941616;29;20040;-82
2023/09/05 06:05:56;;;;;;;10.07;3.88;;;;;;;;;;4926730;29;20067;-81
2023/09/05 06:08:22;;;;;;;5.82;3.00;;;;;;;;;;4945519;29;20043;-81
2023/09/05 06:10:47;;;;;;;13.07;5.88;;;;;;;;;;4948484;29;20043;-81
2023/09/05 06:13:13;;;;;;;10.63;4.60;;;;;;;;;;4966829;29;20028;-81
2023/09/05 06:15:39;;;;;;;7.03;3.38;;;;;;;;;;4938874;29;20056;-81
2023/09/05 06:18:04;;;;;;;14.43;4.05;;;;;;;;;;4956053;29;20031;-80
2023/09/05 06:20:32;;;;;;;9.55;3.35;;;;;;;;;;4958473;29;20047;-82
2023/09/05 06:22:58;;;;;;;6.63;3.95;;;;;;;;;;4959746;28;20035;-81
2023/09/05 06:25:24;;;;;;;7.00;2.85;;;;;;;;;;4958860;29;20042;-82
2023/09/05 06:27:50;;;;;;;7.50;3.30;;;;;;;;;;4951527;29;20047;-82
2023/09/05 06:30:16;;;;;;;4.93;3.00;;;;;;;;;;4960493;28;20036;-81
2023/09/05 06:32:42;;;;;;;8.02;2.85;;;;;;;;;;4942398;29;20038;-82
2023/09/05 06:35:09;;;;;;;5.45;2.72;;;;;;;;;;4958682;29;20614;-83
2023/09/05 06:37:35;;;;;;;5.60;2.85;;;;;;;;;;4928708;29;20488;-82
2023/09/05 06:40:03;;;;;;;6.38;3.20;;;;;;;;;;4944880;29;20079;-80
2023/09/05 06:42:29;;;;;;;85.00;70.83;;;;;;;;;;4943514;29;20043;-80
2023/09/05 06:44:55;;;;;;;13.05;8.32;;;;;;;;;;4943566;29;20043;-80
2023/09/05 06:47:20;;;;;;;9.20;3.65;;;;;;;;;;4925992;29;20036;-79
2023/09/05 06:49:47;;;;;;;6.90;2.90;;;;;;;;;;4942482;29;20058;-80
2023/09/05 06:52:14;;;;;;;7.97;3.92;;;;;;;;;;4942721;29;20553;-80
2023/09/05 06:54:41;;;;;;;12.53;4.53;;;;;;;;;;4943192;29;20043;-79
2023/09/05 06:57:08;;;;;;;6.07;3.10;;;;;;;;;;4927317;29;20107;-80
2023/09/05 06:59:35;;;;;;;6.63;2.78;;;;;;;;;;4941883;29;20040;-80
2023/09/05 07:02:02;;;;;;;7.22;2.90;;;;;;;;;;4945089;29;20040;-79
2023/09/05 07:04:28;;;;;;;6.88;2.75;;;;;;;;;;4943625;29;20024;-80
2023/09/05 07:06:58;;;;;;;7.35;2.75;;;;;;;;;;4925719;29;20461;-80
2023/09/05 07:09:25;;;;;;;7.82;4.50;;;;;;;;;;4942760;29;20028;-80
2023/09/05 07:11:52;;;;;;;5.43;3.30;;;;;;;;;;4954064;29;20052;-80
2023/09/05 07:14:17;;;;;;;5.28;2.60;;;;;;;;;;4937691;29;20048;-81
2023/09/05 07:16:46;;;;;;;9.77;3.50;;;;;;;;;;4912540;29;20035;-80
2023/09/05 07:19:12;;;;;;;5.95;3.40;;;;;;;;;;4925655;29;20115;-81
2023/09/05 07:21:40;;;;;;;5.82;2.58;;;;;;;;;;4926302;29;20044;-79
2023/09/05 07:24:07;;;;;;;4.15;2.38;;;;;;;;;;4926960;29;20043;-81
2023/09/05 07:26:33;;;;;;;4.38;2.30;;;;;;;;;;4942563;29;20032;-82
2023/09/05 07:28:59;;;;;;;5.45;2.50;;;;;;;;;;4926259;29;20032;-79
2023/09/05 07:31:30;;;;;;;7.20;2.55;;;;;;;;;;4943226;29;20034;-80
2023/09/05 07:33:55;;;;;;;6.20;2.80;;;;;;;;;;4911374;29;20028;-80
2023/09/05 07:36:21;;;;;;;3.40;1.90;;;;;;;;;;4935518;29;20099;-81
2023/09/05 07:38:46;;;;;;;4.70;2.50;;;;;;;;;;4942751;29;20036;-80
2023/09/05 07:41:12;;;;;;;5.07;2.10;;;;;;;;;;4924486;29;20420;-81
2023/09/05 07:43:38;;;;;;;5.43;2.17;;;;;;;;;;4926769;29;20051;-81
2023/09/05 07:46:04;;;;;;;5.72;2.25;;;;;;;;;;4932784;29;20060;-80
2023/09/05 07:48:30;;;;;;;5.32;2.17;;;;;;;;;;4925548;29;20057;-80
2023/09/05 07:51:00;;;;;;;6.78;2.47;;;;;;;;;;4926174;29;20055;-81
2023/09/05 07:53:25;;;;;;;9.95;3.47;;;;;;;;;;4940614;29;20032;-81
2023/09/05 07:55:51;;;;;;;6.25;2.40;;;;;;;;;;4924400;29;20569;-80
2023/09/05 07:58:20;;;;;;;5.88;3.22;;;;;;;;;;4951260;29;20027;-80
2023/09/05 08:00:47;;;;;;;5.57;1.98;;;;;;;;;;4927598;29;20056;-81
2023/09/05 08:03:13;;;;;;;4.72;2.40;;;;;;;;;;4942501;29;20031;-79
2023/09/05 08:05:39;;;;;;;4.07;2.20;;;;;;;;;;4941958;29;20027;-81
2023/09/05 08:08:05;;;;;;;4.22;1.80;;;;;;;;;;4940264;29;20370;-81
2023/09/05 08:10:31;;;;;;;29.73;18.75;;;;;;;;;;4941803;29;20446;-81
2023/09/05 08:12:58;;;;;;;9.93;4.43;;;;;;;;;;4936578;29;20048;-83
2023/09/05 08:15:23;;;;;;;14.80;2.67;;;;;;;;;;4940341;29;20047;-83
2023/09/05 08:17:49;;;;;;;5.22;2.40;;;;;;;;;;4945626;29;20099;-83
2023/09/05 08:20:16;;;;;;;4.00;1.73;;;;;;;;;;4929394;29;20035;-82
2023/09/05 08:22:46;;;;;;;5.53;2.30;;;;;;;;;;4927426;29;20104;-83
2023/09/05 08:25:15;;;;;;;4.20;2.22;;;;;;;;;;4944195;29;20503;-84
2023/09/05 08:27:42;;;;;;;4.80;2.35;;;;;;;;;;4944285;29;20036;-83
2023/09/05 08:30:11;;;;;;;6.55;2.33;;;;;;;;;;4929406;29;20040;-82
2023/09/05 08:32:39;;;;;;;4.38;2.20;;;;;;;;;;4948325;29;20031;-83
2023/09/05 08:35:09;;;;;;;5.57;2.20;;;;;;;;;;4947425;29;20131;-83
2023/09/05 08:37:36;;;;;;;6.25;2.50;;;;;;;;;;4947390;29;20032;-82
2023/09/05 08:40:03;;;;;;;4.40;1.80;;;;;;;;;;4946955;29;20554;-83
2023/09/05 08:42:32;;;;;;;5.30;2.25;;;;;;;;;;4946939;29;20040;-83
2023/09/05 08:45:03;;;;;;;5.10;2.33;;;;;;;;;;4946421;29;20044;-83
2023/09/05 08:47:32;;;;;;;6.30;1.95;;;;;;;;;;4934711;29;20036;-83
2023/09/05 08:49:59;;;;;;;5.45;2.13;;;;;;;;;;4949437;29;20107;-85
2023/09/05 08:52:32;;;;;;;9.80;4.32;;;;;;;;;;4957000;28;20059;-85
2023/09/05 08:54:58;;;;;;;5.57;3.22;;;;;;;;;;4960483;28;20043;-85
2023/09/05 08:57:24;;;;;;;5.20;2.60;;;;;;;;;;4960294;28;20068;-86
2023/09/05 08:59:50;;;;;;;7.05;2.15;;;;;;;;;;4960492;28;20067;-85
2023/09/05 09:02:18;;;;;;;5.32;1.80;;;;;;;;;;4960165;28;20063;-85
2023/09/05 09:04:56;;;;;;;6.88;2.00;;;;;;;;;;4943232;29;20048;-86
2023/09/05 09:07:27;;;;;;;6.50;2.13;;;;;;;;;;4931316;29;20507;-86
2023/09/05 09:09:54;;;;;;;4.32;1.80;;;;;;;;;;4925867;29;20039;-85
2023/09/05 09:12:30;;;;;;;4.40;1.87;;;;;;;;;;4930217;29;20400;-85
2023/09/05 09:15:09;;;;;;;4.78;1.85;;;;;;;;;;4930905;29;20383;-86
2023/09/05 09:17:36;;;;;;;5.28;1.70;;;;;;;;;;4947113;29;20103;-85
2023/09/05 09:20:04;;;;;;;3.20;1.60;;;;;;;;;;4939679;29;20087;-86
2023/09/05 09:22:30;;;;;;;5.63;1.73;;;;;;;;;;4911233;29;20064;-85
2023/09/05 09:24:57;;;;;;;4.30;1.75;;;;;;;;;;4928029;29;20047;-85
2023/09/05 09:27:23;;;;;;;4.90;2.03;;;;;;;;;;4946432;29;20441;-85
2023/09/05 09:29:54;;;;;;;7.40;2.10;;;;;;;;;;4931126;29;20113;-86
2023/09/05 09:32:21;;;;;;;3.65;1.33;;;;;;;;;;4953130;29;20028;-85
2023/09/05 09:34:48;;;;;;;4.85;1.67;;;;;;;;;;4936942;29;20107;-85
2023/09/05 09:37:22;;;;;;;3.53;1.50;;;;;;;;;;4938083;29;20032;-84
2023/09/05 09:39:48;;;;;;;4.03;1.35;;;;;;;;;;4919408;29;20051;-86
2023/09/05 09:42:13;;;;;;;4.28;1.73;;;;;;;;;;4927660;29;20127;-86
2023/09/05 09:44:43;;;;;;;7.85;2.03;;;;;;;;;;4928264;29;20036;-85
2023/09/05 09:47:10;;;;;;;4.65;1.90;;;;;;;;;;4911309;29;20123;-84
2023/09/05 09:49:37;;;;;;;5.25;1.75;;;;;;;;;;4943492;29;20035;-85
2023/09/05 09:52:04;;;;;;;6.93;1.70;;;;;;;;;;4943417;29;20036;-85
2023/09/05 09:54:34;;;;;;;4.70;1.90;;;;;;;;;;4943134;29;20035;-86
2023/09/05 09:57:00;;;;;;;4.40;2.10;;;;;;;;;;4945857;29;20038;-85
2023/09/05 09:59:35;;;;;;;4.72;1.80;;;;;;;;;;4947604;29;20097;-86
2023/09/05 10:02:08;;;;;;;4.47;1.50;;;;;;;;;;4947408;29;20095;-86
2023/09/05 10:04:34;;;;;;;4.07;1.55;;;;;;;;;;4946613;29;20036;-86
2023/09/05 10:07:06;;;;;;;5.78;1.63;;;;;;;;;;4945558;29;20036;-86
2023/09/05 10:09:35;;;;;;;2.70;1.45;;;;;;;;;;4929440;29;20122;-86
2023/09/05 10:12:02;;;;;;;9.77;1.55;;;;;;;;;;4933768;28;20040;-86
2023/09/05 10:14:29;;;;;;;4.38;1.60;;;;;;;;;;4927618;29;20040;-86
2023/09/05 10:16:56;;;;;;;4.32;1.58;;;;;;;;;;4910778;29;20040;-85
2023/09/05 10:19:22;;;;;;;3.45;1.50;;;;;;;;;;4925731;29;20031;-86
2023/09/05 10:21:49;;;;;;;3.92;1.55;;;;;;;;;;4924980;29;20044;-86
2023/09/05 10:24:15;;;;;;;4.35;1.40;;;;;;;;;;4909696;29;20068;-85
2023/09/05 10:26:41;;;;;;;2.92;1.30;;;;;;;;;;4924760;29;20104;-85
2023/09/05 10:29:26;;;;;;;6.68;2.80;;;;;;;;;;4956161;28;20106;-86
2023/09/05 10:31:51;;;;;;;2.70;1.50;;;;;;;;;;4944245;29;20032;-85
2023/09/05 10:34:17;;;;;;;3.45;1.40;;;;;;;;;;4943366;29;20035;-85
2023/09/05 10:36:45;;;;;;;4.00;1.50;;;;;;;;;;4927752;29;20043;-85
2023/09/05 10:46:38;;;;;;;2.30;1.13;;;;;;;;;;4949056;29;20042;-86
2023/09/05 11:00:38;;;;;;;4.82;1.77;;;;;;;;;;4949925;29;20065;-84
2023/09/05 11:03:12;;;;;;;2.45;1.30;;;;;;;;;;4931284;29;20032;-86
2023/09/05 11:09:40;;;;;;;3.60;1.08;;;;;;;;;;4932684;29;20055;-85
2023/09/05 11:12:06;;;;;;;4.55;1.60;;;;;;;;;;4948291;29;20028;-86
2023/09/05 11:14:32;;;;;;;4.85;1.52;;;;;;;;;;4950075;29;20039;-86
2023/09/05 11:16:58;;;;;;;2.95;1.50;;;;;;;;;;4970236;29;20031;-85
2023/09/05 11:19:42;;;;;;;3.88;1.00;;;;;;;;;;4959016;28;20020;-86
2023/09/05 11:22:19;;;;;;;3.22;1.00;;;;;;;;;;4977441;28;20036;-85
2023/09/05 11:24:47;;;;;;;3.58;1.45;;;;;;;;;;4961309;28;20137;-86
2023/09/05 11:27:13;;;;;;;;;;;;;;;;;;4944461;29;20038;-85
2023/09/05 11:29:39;;;;;;;4.35;1.23;;;;;;;;;;4958973;29;19914;-86
2023/09/05 11:32:06;;;;;;;3.55;1.20;;;;;;;;;;4952349;29;20036;-87
2023/09/05 11:34:33;;;;;;;2.75;1.40;;;;;;;;;;4933974;29;20042;-86
2023/09/05 11:37:00;;;;;;;2.13;1.10;;;;;;;;;;4934596;29;20529;-86
2023/09/05 11:39:27;;;;;;;4.78;1.70;;;;;;;;;;4950068;29;20083;-85
2023/09/05 11:41:58;;;;;;;2.80;1.30;;;;;;;;;;4950286;29;20079;-86
2023/09/05 11:44:31;;;;;;;2.28;1.20;;;;;;;;;;4948545;29;20062;-85
2023/09/05 11:46:58;;;;;;;5.63;1.83;;;;;;;;;;4950527;29;20378;-86
2023/09/05 11:49:23;;;;;;;5.22;1.40;;;;;;;;;;4940993;29;20465;-85
2023/09/05 11:51:49;;;;;;;3.92;1.33;;;;;;;;;;4945513;29;20079;-84
2023/09/05 11:54:17;;;;;;;3.33;1.67;;;;;;;;;;4939055;29;20054;-86
2023/09/05 11:56:42;;;;;;;3.80;1.95;;;;;;;;;;4920916;29;20122;-86
2023/09/05 11:59:08;;;;;;;4.18;1.55;;;;;;;;;;4958692;29;20032;-85
2023/09/05 12:01:34;;;;;;;3.88;1.48;;;;;;;;;;4960210;29;20035;-85
2023/09/05 12:04:03;;;;;;;4.47;1.30;;;;;;;;;;4944515;29;20029;-87
2023/09/05 12:06:34;;;;;;;3.67;1.50;;;;;;;;;;4955259;28;20064;-83
2023/09/05 12:09:00;;;;;;;781.33;508.00;;;;;;;;;;4938706;29;20039;-80
2023/09/05 12:11:27;;;;;;;18.50;12.85;;;;;;;;;;4924357;29;20035;-82
2023/09/05 12:13:56;;;;;;;6.40;2.10;;;;;;;;;;4969779;28;20031;-83
2023/09/05 12:16:22;;;;;;;2.72;1.20;;;;;;;;;;4967070;29;20046;-82
2023/09/05 12:18:57;;;;;;;4.18;1.73;;;;;;;;;;4950821;28;20031;-83
2023/09/05 12:21:25;;;;;;;5.72;1.45;;;;;;;;;;4938443;29;20076;-83
2023/09/05 12:23:51;;;;;;;;;;;;;;;;;;4939737;29;20064;-84
2023/09/05 12:26:16;;;;;;;4.93;1.50;;;;;;;;;;4923682;29;19918;-84
2023/09/05 12:28:58;;;;;;;3.58;1.40;;;;;;;;;;4939205;29;20199;-84
2023/09/05 12:31:24;;;;;;;6.32;1.70;;;;;;;;;;4937805;29;20028;-84
2023/09/05 12:33:55;;;;;;;2.90;1.50;;;;;;;;;;4917036;29;20040;-84
2023/09/05 12:36:21;;;;;;;5.93;1.85;;;;;;;;;;4921043;29;20044;-84
2023/09/05 12:38:46;;;;;;;3.90;1.88;;;;;;;;;;4935318;29;20042;-83
2023/09/05 12:41:13;;;;;;;6.22;1.70;;;;;;;;;;4946477;29;20051;-83
2023/09/05 12:43:41;;;;;;;3.97;1.60;;;;;;;;;;4944089;28;20023;-83
2023/09/05 12:46:07;;;;;;;5.20;1.20;;;;;;;;;;4959471;28;20046;-84
2023/09/05 12:48:33;;;;;;;5.38;3.00;;;;;;;;;;4960819;28;20070;-83
2023/09/05 12:50:58;;;;;;;4.57;1.50;;;;;;;;;;4941951;28;20043;-84
2023/09/05 12:53:27;;;;;;;8.38;1.73;;;;;;;;;;4960906;28;20016;-84
2023/09/05 12:55:53;;;;;;;2.50;1.50;;;;;;;;;;4978605;28;20035;-84
2023/09/05 12:58:19;;;;;;;4.35;1.48;;;;;;;;;;4979586;28;20030;-85
2023/09/05 13:00:45;;;;;;;2.83;1.30;;;;;;;;;;4970529;28;20032;-83
2023/09/05 13:03:11;;;;;;;3.47;1.33;;;;;;;;;;4952997;29;20066;-85
2023/09/05 13:05:37;;;;;;;5.25;1.90;;;;;;;;;;4942020;29;20034;-85
2023/09/05 13:08:04;;;;;;;4.32;1.73;;;;;;;;;;4927104;29;20035;-83
2023/09/05 13:10:30;;;;;;;3.08;1.30;;;;;;;;;;4945120;28;20657;-83
2023/09/05 13:12:55;;;;;;;6.18;1.27;;;;;;;;;;4950029;29;20037;-84
2023/09/05 13:15:21;;;;;;;4.45;1.80;;;;;;;;;;4948766;29;20460;-85
2023/09/05 13:17:47;;;;;;;6.43;1.40;;;;;;;;;;4930247;29;20432;-85
2023/09/05 13:20:14;;;;;;;3.90;1.30;;;;;;;;;;4929540;29;20039;-84
2023/09/05 13:22:44;;;;;;;5.00;1.80;;;;;;;;;;4962895;29;20033;-83
2023/09/05 13:25:12;;;;;;;2.90;1.10;;;;;;;;;;4963602;28;20035;-83
2023/09/05 13:27:37;;;;;;;3.00;1.42;;;;;;;;;;4917537;29;20166;-85
2023/09/05 13:30:05;;;;;;;2.95;1.20;;;;;;;;;;4950045;28;20497;-82
2023/09/05 13:32:30;;;;;;;10.75;1.92;;;;;;;;;;4923340;29;20023;-81
2023/09/05 13:34:57;;;;;;;3.25;1.38;;;;;;;;;;4939290;29;20051;-81
2023/09/05 13:37:22;;;;;;;3.15;1.48;;;;;;;;;;4940260;29;20031;-82
2023/09/05 13:39:49;;;;;;;3.25;1.23;;;;;;;;;;4928190;29;20027;-83
2023/09/05 13:42:16;;;;;;;4.03;1.73;;;;;;;;;;4947575;29;20035;-82
2023/09/05 13:44:42;;;;;;;2.08;1.20;;;;;;;;;;4977659;28;20055;-83
2023/09/05 13:47:07;;;;;;;4.68;1.70;;;;;;;;;;4963128;29;20039;-83
2023/09/05 13:49:33;;;;;;;3.05;1.20;;;;;;;;;;4952082;29;20027;-81
2023/09/05 13:51:59;;;;;;;4.40;1.65;;;;;;;;;;4974492;28;20035;-82
2023/09/05 13:54:25;;;;;;;3.27;1.20;;;;;;;;;;4977616;28;20059;-82
2023/09/05 13:56:51;;;;;;;5.00;1.40;;;;;;;;;;4962313;28;20036;-82
2023/09/05 13:59:18;;;;;;;2.70;1.15;;;;;;;;;;4947599;28;20032;-83
2023/09/05 14:01:49;;;;;;;4.93;1.50;;;;;;;;;;4966831;28;20027;-83
2023/09/05 14:04:15;;;;;;;8.35;6.00;;;;;;;;;;4963545;28;20091;-81
2023/09/05 14:06:43;;;;;;;4.57;1.67;;;;;;;;;;4931520;29;20356;-79
2023/09/05 14:09:09;;;;;;;5.30;1.85;;;;;;;;;;4946224;28;20522;-81
2023/09/05 14:11:34;;;;;;;3.67;1.58;;;;;;;;;;4923183;29;20032;-80
2023/09/05 14:14:00;;;;;;;8.27;1.42;;;;;;;;;;4953029;29;20443;-81
2023/09/05 14:16:25;;;;;;;4.53;1.30;;;;;;;;;;4931916;28;20172;-82
2023/09/05 14:18:51;;;;;;;2.53;1.20;;;;;;;;;;4947813;29;20039;-82
2023/09/05 14:21:20;;;;;;;3.95;1.30;;;;;;;;;;4952837;29;20031;-79
2023/09/05 14:23:46;;;;;;;2.83;1.50;;;;;;;;;;4948315;29;20031;-81
2023/09/05 14:26:11;;;;;;;4.63;1.40;;;;;;;;;;4946882;29;20059;-81
2023/09/05 14:28:37;;;;;;;3.42;1.40;;;;;;;;;;4949803;28;20060;-83
2023/09/05 14:31:03;;;;;;;3.80;1.60;;;;;;;;;;4963377;29;20068;-83
2023/09/05 14:33:32;;;;;;;2.95;1.45;;;;;;;;;;4950255;29;20023;-84
2023/09/05 14:35:59;;;;;;;3.47;1.40;;;;;;;;;;4993645;28;20244;-85
2023/09/05 14:38:27;;;;;;;4.60;1.30;;;;;;;;;;4970746;28;20023;-86
2023/09/05 14:40:53;;;;;;;3.42;1.52;;;;;;;;;;4960040;28;20071;-84
2023/09/05 14:43:20;;;;;;;3.38;1.80;;;;;;;;;;4960548;29;20035;-86
2023/09/05 14:45:46;;;;;;;;;;;;;;;;;;4949845;29;20036;-83
2023/09/05 14:48:11;;;;;;;3.88;1.40;;;;;;;;;;4959999;29;19910;-83
2023/09/05 14:50:37;;;;;;;5.78;1.85;;;;;;;;;;4960366;29;20015;-84
2023/09/05 14:53:03;;;;;;;3.35;1.40;;;;;;;;;;4959689;29;20034;-83
2023/09/05 14:55:28;;;;;;;5.65;1.63;;;;;;;;;;4939227;29;20039;-83
2023/09/05 14:57:54;;;;;;;3.35;1.50;;;;;;;;;;4946206;29;20031;-84
2023/09/05 15:00:20;;;;;;;3.00;1.40;;;;;;;;;;4929029;29;20063;-84
2023/09/05 15:02:46;;;;;;;2.83;1.27;;;;;;;;;;4928981;29;20035;-84
2023/09/05 15:05:12;;;;;;;2.90;1.25;;;;;;;;;;4927511;29;20064;-84